sensor_id;sensor_type;location;lat;lon;timestamp;pressure;altitude;pressure_sealevel;temperature;humidity
11542;BME280;5827;49.482;7.716;2023-04-09T00:01:38;99550.22;;;7.49;100.00
11542;BME280;5827;49.482;7.716;2023-04-09T00:03:39;99543.84;;;7.44;100.00
11542;BME280;5827;49.482;7.716;2023-04-09T00:05:41;99545.25;;;7.33;100.00
11542;BME280;5827;49.482;7.716;2023-04-09T00:07:42;99544.03;;;7.35;100.00
11542;BME280;5827;49.482;7.716;2023-04-09T00:09:44;99545.91;;;7.35;100.00
11542;BME280;5827;49.482;7.716;2023-04-09T00:11:45;99545.88;;;7.28;100.00
11542;BME280;5827;49.482;7.716;2023-04-09T00:13:47;99538.69;;;7.16;100.00
11542;BME280;5827;49.482;7.716;2023-04-09T00:15:48;99541.78;;;7.26;100.00
11542;BME280;5827;49.482;7.716;2023-04-09T00:17:51;99545.25;;;7.26;100.00
11542;BME280;5827;49.482;7.716;2023-04-09T00:19:53;99545.06;;;7.28;100.00
11542;BME280;5827;49.482;7.716;2023-04-09T00:21:54;99540.16;;;7.25;100.00
11542;BME280;5827;49.482;7.716;2023-04-09T00:23:56;99545.47;;;7.31;100.00
11542;BME280;5827;49.482;7.716;2023-04-09T00:25:57;99540.16;;;7.31;100.00
11542;BME280;5827;49.482;7.716;2023-04-09T00:27:59;99539.72;;;7.21;100.00
11542;BME280;5827;49.482;7.716;2023-04-09T00:30:00;99538.91;;;7.27;100.00
11542;BME280;5827;49.482;7.716;2023-04-09T00:32:02;99538.09;;;7.20;100.00
11542;BME280;5827;49.482;7.716;2023-04-09T00:34:05;99539.13;;;7.32;100.00
11542;BME280;5827;49.482;7.716;2023-04-09T00:36:06;99542.81;;;7.45;100.00
11542;BME280;5827;49.482;7.716;2023-04-09T00:38:08;99545.69;;;7.50;100.00
11542;BME280;5827;49.482;7.716;2023-04-09T00:40:10;99543.84;;;7.50;100.00
11542;BME280;5827;49.482;7.716;2023-04-09T00:42:11;99544.28;;;7.54;100.00
11542;BME280;5827;49.482;7.716;2023-04-09T00:44:13;99543.25;;;7.48;100.00
11542;BME280;5827;49.482;7.716;2023-04-09T00:46:15;99552.06;;;7.49;100.00
11542;BME280;5827;49.482;7.716;2023-04-09T00:48:17;99543.66;;;7.45;100.00
11542;BME280;5827;49.482;7.716;2023-04-09T00:50:20;99541.38;;;7.42;100.00
11542;BME280;5827;49.482;7.716;2023-04-09T00:52:22;99539.53;;;7.36;100.00
11542;BME280;5827;49.482;7.716;2023-04-09T00:54:24;99534.38;;;7.28;100.00
11542;BME280;5827;49.482;7.716;2023-04-09T00:56:26;99546.09;;;7.40;100.00
11542;BME280;5827;49.482;7.716;2023-04-09T00:58:28;99535.22;;;7.42;100.00
11542;BME280;5827;49.482;7.716;2023-04-09T01:00:29;99539.13;;;7.26;100.00
11542;BME280;5827;49.482;7.716;2023-04-09T01:02:31;99536.25;;;7.34;100.00
11542;BME280;5827;49.482;7.716;2023-04-09T01:04:33;99544.25;;;7.41;100.00
11542;BME280;5827;49.482;7.716;2023-04-09T01:06:41;99547.75;;;7.41;100.00
11542;BME280;5827;49.482;7.716;2023-04-09T01:08:49;99538.94;;;7.34;100.00
11542;BME280;5827;49.482;7.716;2023-04-09T01:11:01;99546.91;;;7.41;100.00
11542;BME280;5827;49.482;7.716;2023-04-09T01:13:07;99540.16;;;7.45;100.00
11542;BME280;5827;49.482;7.716;2023-04-09T01:15:14;99547.13;;;7.39;100.00
11542;BME280;5827;49.482;7.716;2023-04-09T01:17:24;99543.66;;;7.38;100.00
11542;BME280;5827;49.482;7.716;2023-04-09T01:19:38;99537.28;;;7.39;100.00
11542;BME280;5827;49.482;7.716;2023-04-09T01:21:43;99536.88;;;7.49;100.00
11542;BME280;5827;49.482;7.716;2023-04-09T01:23:46;99538.34;;;7.52;100.00
11542;BME280;5827;49.482;7.716;2023-04-09T01:26:02;99537.91;;;7.55;100.00
11542;BME280;5827;49.482;7.716;2023-04-09T01:28:16;99539.13;;;7.46;100.00
11542;BME280;5827;49.482;7.716;2023-04-09T01:30:19;99538.09;;;7.40;100.00
11542;BME280;5827;49.482;7.716;2023-04-09T01:32:23;99538.09;;;7.47;100.00
11542;BME280;5827;49.482;7.716;2023-04-09T01:34:26;99534.00;;;7.44;100.00
11542;BME280;5827;49.482;7.716;2023-04-09T01:36:29;99543.00;;;7.36;100.00
11542;BME280;5827;49.482;7.716;2023-04-09T01:38:32;99542.38;;;7.28;100.00
11542;BME280;5827;49.482;7.716;2023-04-09T01:40:35;99545.06;;;7.34;100.00
11542;BME280;5827;49.482;7.716;2023-04-09T01:42:38;99538.72;;;7.29;100.00
11542;BME280;5827;49.482;7.716;2023-04-09T01:44:44;99541.16;;;7.17;100.00
11542;BME280;5827;49.482;7.716;2023-04-09T01:46:48;99538.69;;;7.16;100.00
11542;BME280;5827;49.482;7.716;2023-04-09T01:48:50;99539.31;;;7.18;100.00
11542;BME280;5827;49.482;7.716;2023-04-09T01:50:52;99533.75;;;7.12;100.00
11542;BME280;5827;49.482;7.716;2023-04-09T01:52:54;99535.22;;;7.22;100.00
11542;BME280;5827;49.482;7.716;2023-04-09T01:54:56;99534.19;;;7.23;100.00
11542;BME280;5827;49.482;7.716;2023-04-09T01:56:58;99538.47;;;7.24;100.00
11542;BME280;5827;49.482;7.716;2023-04-09T01:59:00;99529.28;;;7.20;100.00
11542;BME280;5827;49.482;7.716;2023-04-09T02:01:05;99533.38;;;7.29;100.00
11542;BME280;5827;49.482;7.716;2023-04-09T02:03:10;99535.19;;;7.28;100.00
11542;BME280;5827;49.482;7.716;2023-04-09T02:05:17;99537.47;;;7.31;100.00
11542;BME280;5827;49.482;7.716;2023-04-09T02:07:26;99541.97;;;7.37;100.00
11542;BME280;5827;49.482;7.716;2023-04-09T02:09:31;99536.06;;;7.35;100.00
11542;BME280;5827;49.482;7.716;2023-04-09T02:11:36;99536.06;;;7.29;100.00
11542;BME280;5827;49.482;7.716;2023-04-09T02:13:39;99534.59;;;7.26;100.00
11542;BME280;5827;49.482;7.716;2023-04-09T02:15:42;99534.19;;;7.23;100.00
11542;BME280;5827;49.482;7.716;2023-04-09T02:17:45;99542.56;;;7.13;100.00
11542;BME280;5827;49.482;7.716;2023-04-09T02:19:47;99533.75;;;7.19;100.00
11542;BME280;5827;49.482;7.716;2023-04-09T02:21:49;99534.19;;;7.23;100.00
11542;BME280;5827;49.482;7.716;2023-04-09T02:23:50;99534.78;;;7.11;100.00
11542;BME280;5827;49.482;7.716;2023-04-09T02:25:52;99535.00;;;7.23;100.00
11542;BME280;5827;49.482;7.716;2023-04-09T02:27:54;99539.31;;;7.31;100.00
11542;BME280;5827;49.482;7.716;2023-04-09T02:29:55;99535.22;;;7.42;100.00
11542;BME280;5827;49.482;7.716;2023-04-09T02:31:57;99542.84;;;7.38;100.00
11542;BME280;5827;49.482;7.716;2023-04-09T02:34:00;99539.53;;;7.36;100.00
11542;BME280;5827;49.482;7.716;2023-04-09T02:36:01;99538.09;;;7.40;100.00
11542;BME280;5827;49.482;7.716;2023-04-09T02:38:03;99539.13;;;7.39;100.00
11542;BME280;5827;49.482;7.716;2023-04-09T02:40:06;99536.44;;;7.32;100.00
11542;BME280;5827;49.482;7.716;2023-04-09T02:42:07;99545.47;;;7.31;100.00
11542;BME280;5827;49.482;7.716;2023-04-09T02:44:09;99541.81;;;7.39;100.00
11542;BME280;5827;49.482;7.716;2023-04-09T02:46:10;99536.88;;;7.36;100.00
11542;BME280;5827;49.482;7.716;2023-04-09T02:48:12;99542.44;;;7.48;100.00
11542;BME280;5827;49.482;7.716;2023-04-09T02:50:16;99538.50;;;7.50;100.00
11542;BME280;5827;49.482;7.716;2023-04-09T02:52:17;99537.72;;;7.56;100.00
11542;BME280;5827;49.482;7.716;2023-04-09T02:54:21;99542.81;;;7.51;100.00
11542;BME280;5827;49.482;7.716;2023-04-09T02:56:23;99541.81;;;7.59;100.00
11542;BME280;5827;49.482;7.716;2023-04-09T02:58:24;99543.66;;;7.52;100.00
11542;BME280;5827;49.482;7.716;2023-04-09T03:00:26;99544.25;;;7.60;100.00
11542;BME280;5827;49.482;7.716;2023-04-09T03:02:27;99539.78;;;7.61;100.00
11542;BME280;5827;49.482;7.716;2023-04-09T03:04:29;99542.19;;;7.56;100.00
11542;BME280;5827;49.482;7.716;2023-04-09T03:06:32;99539.56;;;7.62;100.00
11542;BME280;5827;49.482;7.716;2023-04-09T03:08:33;99541.41;;;7.69;100.00
11542;BME280;5827;49.482;7.716;2023-04-09T03:10:35;99530.75;;;7.75;100.00
11542;BME280;5827;49.482;7.716;2023-04-09T03:12:36;99535.88;;;7.70;100.00
11542;BME280;5827;49.482;7.716;2023-04-09T03:14:38;99532.78;;;7.60;100.00
11542;BME280;5827;49.482;7.716;2023-04-09T03:16:39;99524.56;;;7.68;100.00
11542;BME280;5827;49.482;7.716;2023-04-09T03:18:41;99525.38;;;7.69;100.00
11542;BME280;5827;49.482;7.716;2023-04-09T03:20:42;99528.50;;;7.66;100.00
11542;BME280;5827;49.482;7.716;2023-04-09T03:22:45;99527.47;;;7.67;100.00
11542;BME280;5827;49.482;7.716;2023-04-09T03:24:47;99520.88;;;7.69;100.00
11542;BME280;5827;49.482;7.716;2023-04-09T03:26:48;99520.66;;;7.77;100.00
11542;BME280;5827;49.482;7.716;2023-04-09T03:28:50;99519.22;;;7.81;100.00
11542;BME280;5827;49.482;7.716;2023-04-09T03:30:51;99515.97;;;7.66;100.00
11542;BME280;5827;49.482;7.716;2023-04-09T03:32:53;99525.00;;;7.58;100.00
11542;BME280;5827;49.482;7.716;2023-04-09T03:34:54;99512.66;;;7.37;100.00
11542;BME280;5827;49.482;7.716;2023-04-09T03:36:56;99510.00;;;7.64;100.00
11542;BME280;5827;49.482;7.716;2023-04-09T03:38:58;99523.16;;;7.66;100.00
11542;BME280;5827;49.482;7.716;2023-04-09T03:41:00;99516.38;;;7.63;100.00
11542;BME280;5827;49.482;7.716;2023-04-09T03:43:02;99515.16;;;7.66;100.00
11542;BME280;5827;49.482;7.716;2023-04-09T03:45:05;99509.38;;;7.69;100.00
11542;BME280;5827;49.482;7.716;2023-04-09T03:47:06;99505.50;;;7.51;100.00
11542;BME280;5827;49.482;7.716;2023-04-09T03:49:08;99510.03;;;7.57;100.00
11542;BME280;5827;49.482;7.716;2023-04-09T03:51:10;99508.59;;;7.61;100.00
11542;BME280;5827;49.482;7.716;2023-04-09T03:53:12;99507.97;;;7.53;100.00
11542;BME280;5827;49.482;7.716;2023-04-09T03:55:15;99509.38;;;7.55;100.00
11542;BME280;5827;49.482;7.716;2023-04-09T03:57:17;99511.66;;;7.45;100.00
11542;BME280;5827;49.482;7.716;2023-04-09T03:59:18;99509.59;;;7.41;100.00
11542;BME280;5827;49.482;7.716;2023-04-09T04:01:20;99508.19;;;7.38;100.00
11542;BME280;5827;49.482;7.716;2023-04-09T04:03:21;99502.22;;;7.36;100.00
11542;BME280;5827;49.482;7.716;2023-04-09T04:05:23;99503.44;;;7.27;100.00
11542;BME280;5827;49.482;7.716;2023-04-09T04:07:25;99507.53;;;7.23;100.00
11542;BME280;5827;49.482;7.716;2023-04-09T04:09:27;99507.16;;;7.39;100.00
11542;BME280;5827;49.482;7.716;2023-04-09T04:11:30;99506.94;;;7.34;100.00
11542;BME280;5827;49.482;7.716;2023-04-09T04:13:31;99500.78;;;7.27;100.00
11542;BME280;5827;49.482;7.716;2023-04-09T04:15:33;99511.44;;;7.20;100.00
11542;BME280;5827;49.482;7.716;2023-04-09T04:17:34;99511.00;;;7.23;100.00
11542;BME280;5827;49.482;7.716;2023-04-09T04:19:36;99513.25;;;7.06;100.00
11542;BME280;5827;49.482;7.716;2023-04-09T04:21:37;99507.03;;;6.86;100.00
11542;BME280;5827;49.482;7.716;2023-04-09T04:23:39;99503.75;;;6.77;100.00
11542;BME280;5827;49.482;7.716;2023-04-09T04:25:40;99505.19;;;6.86;100.00
11542;BME280;5827;49.482;7.716;2023-04-09T04:27:43;99512.78;;;6.83;100.00
11542;BME280;5827;49.482;7.716;2023-04-09T04:29:45;99508.72;;;6.94;100.00
11542;BME280;5827;49.482;7.716;2023-04-09T04:31:46;99506.88;;;6.94;100.00
11542;BME280;5827;49.482;7.716;2023-04-09T04:33:48;99512.38;;;6.86;100.00
11542;BME280;5827;49.482;7.716;2023-04-09T04:35:49;99511.13;;;6.75;100.00
11542;BME280;5827;49.482;7.716;2023-04-09T04:37:50;99504.34;;;6.66;100.00
11542;BME280;5827;49.482;7.716;2023-04-09T04:39:52;99509.44;;;6.68;100.00
11542;BME280;5827;49.482;7.716;2023-04-09T04:41:53;99515.78;;;6.60;100.00
11542;BME280;5827;49.482;7.716;2023-04-09T04:43:57;99517.59;;;6.53;100.00
11542;BME280;5827;49.482;7.716;2023-04-09T04:45:58;99505.09;;;6.47;100.00
11542;BME280;5827;49.482;7.716;2023-04-09T04:48:00;99508.56;;;6.54;100.00
11542;BME280;5827;49.482;7.716;2023-04-09T04:50:01;99507.91;;;6.45;100.00
11542;BME280;5827;49.482;7.716;2023-04-09T04:52:04;99513.22;;;6.39;100.00
11542;BME280;5827;49.482;7.716;2023-04-09T04:54:05;99518.50;;;6.32;100.00
11542;BME280;5827;49.482;7.716;2023-04-09T04:56:11;99515.63;;;6.27;100.00
11542;BME280;5827;49.482;7.716;2023-04-09T04:58:13;99511.75;;;6.29;100.00
11542;BME280;5827;49.482;7.716;2023-04-09T05:00:16;99515.84;;;6.32;100.00
11542;BME280;5827;49.482;7.716;2023-04-09T05:02:18;99513.78;;;6.27;100.00
11542;BME280;5827;49.482;7.716;2023-04-09T05:04:19;99520.31;;;6.25;100.00
11542;BME280;5827;49.482;7.716;2023-04-09T05:06:21;99521.06;;;6.12;100.00
11542;BME280;5827;49.482;7.716;2023-04-09T05:08:22;99515.94;;;6.10;100.00
11542;BME280;5827;49.482;7.716;2023-04-09T05:10:24;99516.56;;;6.13;100.00
11542;BME280;5827;49.482;7.716;2023-04-09T05:12:25;99521.72;;;6.14;100.00
11542;BME280;5827;49.482;7.716;2023-04-09T05:14:27;99520.88;;;6.14;100.00
11542;BME280;5827;49.482;7.716;2023-04-09T05:16:30;99528.09;;;6.20;100.00
11542;BME280;5827;49.482;7.716;2023-04-09T05:18:31;99526.69;;;6.24;100.00
11542;BME280;5827;49.482;7.716;2023-04-09T05:20:33;99526.69;;;6.24;100.00
11542;BME280;5827;49.482;7.716;2023-04-09T05:22:34;99529.94;;;6.26;100.00
11542;BME280;5827;49.482;7.716;2023-04-09T05:24:36;99533.25;;;6.28;100.00
11542;BME280;5827;49.482;7.716;2023-04-09T05:26:37;99524.47;;;6.34;100.00
11542;BME280;5827;49.482;7.716;2023-04-09T05:28:39;99527.13;;;6.34;100.00
11542;BME280;5827;49.482;7.716;2023-04-09T05:30:40;99534.91;;;6.35;100.00
11542;BME280;5827;49.482;7.716;2023-04-09T05:32:43;99529.63;;;6.42;100.00
11542;BME280;5827;49.482;7.716;2023-04-09T05:34:45;99536.59;;;6.43;100.00
11542;BME280;5827;49.482;7.716;2023-04-09T05:36:46;99528.63;;;6.50;100.00
11542;BME280;5827;49.482;7.716;2023-04-09T05:38:48;99534.59;;;6.52;100.00
11542;BME280;5827;49.482;7.716;2023-04-09T05:40:50;99543.00;;;6.55;100.00
11542;BME280;5827;49.482;7.716;2023-04-09T05:42:51;99547.47;;;6.55;100.00
11542;BME280;5827;49.482;7.716;2023-04-09T05:44:53;99540.38;;;6.62;100.00
11542;BME280;5827;49.482;7.716;2023-04-09T05:46:55;99541.22;;;6.76;100.00
11542;BME280;5827;49.482;7.716;2023-04-09T05:48:58;99545.78;;;6.88;100.00
11542;BME280;5827;49.482;7.716;2023-04-09T05:50:59;99548.50;;;7.02;100.00
11542;BME280;5827;49.482;7.716;2023-04-09T05:53:01;99555.69;;;7.14;100.00
11542;BME280;5827;49.482;7.716;2023-04-09T05:55:03;99556.75;;;7.20;100.00
11542;BME280;5827;49.482;7.716;2023-04-09T05:57:05;99548.75;;;7.27;100.00
11542;BME280;5827;49.482;7.716;2023-04-09T05:59:07;99560.66;;;7.37;100.00
11542;BME280;5827;49.482;7.716;2023-04-09T06:01:08;99562.31;;;7.45;99.90
11542;BME280;5827;49.482;7.716;2023-04-09T06:03:10;99562.50;;;7.50;98.78
11542;BME280;5827;49.482;7.716;2023-04-09T06:05:13;99562.94;;;7.47;98.41
11542;BME280;5827;49.482;7.716;2023-04-09T06:07:15;99562.50;;;7.50;98.75
11542;BME280;5827;49.482;7.716;2023-04-09T06:09:16;99561.91;;;7.55;98.05
11542;BME280;5827;49.482;7.716;2023-04-09T06:11:18;99566.00;;;7.64;98.39
11542;BME280;5827;49.482;7.716;2023-04-09T06:13:20;99563.75;;;7.74;97.74
11542;BME280;5827;49.482;7.716;2023-04-09T06:15:21;99567.25;;;7.95;97.18
11542;BME280;5827;49.482;7.716;2023-04-09T06:17:23;99570.13;;;8.00;95.79
11542;BME280;5827;49.482;7.716;2023-04-09T06:19:24;99572.56;;;8.14;95.43
11542;BME280;5827;49.482;7.716;2023-04-09T06:21:27;99575.22;;;8.28;95.49
11542;BME280;5827;49.482;7.716;2023-04-09T06:23:29;99583.44;;;8.26;94.64
11542;BME280;5827;49.482;7.716;2023-04-09T06:25:30;99579.75;;;8.40;94.89
11542;BME280;5827;49.482;7.716;2023-04-09T06:27:32;99571.50;;;8.35;93.27
11542;BME280;5827;49.482;7.716;2023-04-09T06:29:33;99585.66;;;8.36;93.10
11542;BME280;5827;49.482;7.716;2023-04-09T06:31:35;99583.16;;;8.61;93.69
11542;BME280;5827;49.482;7.716;2023-04-09T06:33:36;99585.59;;;8.76;92.33
11542;BME280;5827;49.482;7.716;2023-04-09T06:35:38;99590.28;;;8.87;91.27
11542;BME280;5827;49.482;7.716;2023-04-09T06:37:41;99590.44;;;8.92;90.65
11542;BME280;5827;49.482;7.716;2023-04-09T06:39:42;99597.00;;;9.03;90.59
11542;BME280;5827;49.482;7.716;2023-04-09T06:41:44;99589.94;;;9.15;91.51
11542;BME280;5827;49.482;7.716;2023-04-09T06:43:45;99590.50;;;8.85;91.17
11542;BME280;5827;49.482;7.716;2023-04-09T06:45:47;99590.56;;;9.17;90.20
11542;BME280;5827;49.482;7.716;2023-04-09T06:47:48;99599.59;;;9.54;89.75
11542;BME280;5827;49.482;7.716;2023-04-09T06:49:50;99609.00;;;9.63;86.55
11542;BME280;5827;49.482;7.716;2023-04-09T06:51:51;99598.03;;;9.40;89.78
11542;BME280;5827;49.482;7.716;2023-04-09T06:53:55;99591.84;;;9.08;91.01
11542;BME280;5827;49.482;7.716;2023-04-09T06:55:56;99592.00;;;9.13;90.75
11542;BME280;5827;49.482;7.716;2023-04-09T06:57:57;99598.50;;;9.62;87.86
11542;BME280;5827;49.482;7.716;2023-04-09T06:59:59;99601.47;;;9.47;88.48
11542;BME280;5827;49.482;7.716;2023-04-09T07:02:00;99592.97;;;9.57;89.58
11542;BME280;5827;49.482;7.716;2023-04-09T07:04:02;99591.22;;;9.44;89.86
11542;BME280;5827;49.482;7.716;2023-04-09T07:06:04;99585.00;;;9.19;90.80
11542;BME280;5827;49.482;7.716;2023-04-09T07:08:06;99579.00;;;8.85;91.52
11542;BME280;5827;49.482;7.716;2023-04-09T07:10:09;99586.97;;;9.30;90.78
11542;BME280;5827;49.482;7.716;2023-04-09T07:12:11;99581.78;;;9.66;90.08
11542;BME280;5827;49.482;7.716;2023-04-09T07:14:12;99600.63;;;10.03;87.37
11542;BME280;5827;49.482;7.716;2023-04-09T07:16:14;99588.56;;;9.44;89.02
11542;BME280;5827;49.482;7.716;2023-04-09T07:18:16;99592.97;;;9.57;90.39
11542;BME280;5827;49.482;7.716;2023-04-09T07:20:17;99596.06;;;10.10;87.19
11542;BME280;5827;49.482;7.716;2023-04-09T07:22:19;99588.47;;;10.07;88.32
11542;BME280;5827;49.482;7.716;2023-04-09T07:24:21;99595.78;;;10.18;87.49
11542;BME280;5827;49.482;7.716;2023-04-09T07:26:24;99584.16;;;9.81;89.63
11542;BME280;5827;49.482;7.716;2023-04-09T07:28:26;99593.25;;;10.24;88.79
11542;BME280;5827;49.482;7.716;2023-04-09T07:30:27;99591.69;;;10.41;88.51
11542;BME280;5827;49.482;7.716;2023-04-09T07:32:29;99585.97;;;10.56;87.27
11542;BME280;5827;49.482;7.716;2023-04-09T07:34:31;99595.06;;;10.55;86.62
11542;BME280;5827;49.482;7.716;2023-04-09T07:36:32;99595.09;;;10.85;84.65
11542;BME280;5827;49.482;7.716;2023-04-09T07:38:34;99594.22;;;10.91;84.66
11542;BME280;5827;49.482;7.716;2023-04-09T07:40:35;99601.94;;;10.99;83.81
11542;BME280;5827;49.482;7.716;2023-04-09T07:42:38;99600.19;;;10.56;83.55
11542;BME280;5827;49.482;7.716;2023-04-09T07:44:41;99602.03;;;10.92;83.17
11542;BME280;5827;49.482;7.716;2023-04-09T07:46:43;99605.13;;;11.08;80.36
11542;BME280;5827;49.482;7.716;2023-04-09T07:48:44;99607.38;;;11.11;81.36
11542;BME280;5827;49.482;7.716;2023-04-09T07:50:46;99595.56;;;10.45;81.08
11542;BME280;5827;49.482;7.716;2023-04-09T07:52:48;99599.50;;;10.98;80.16
11542;BME280;5827;49.482;7.716;2023-04-09T07:54:49;99601.91;;;11.17;79.14
11542;BME280;5827;49.482;7.716;2023-04-09T07:56:51;99608.13;;;11.18;78.49
11542;BME280;5827;49.482;7.716;2023-04-09T07:58:54;99592.97;;;11.24;81.02
11542;BME280;5827;49.482;7.716;2023-04-09T08:00:55;99602.44;;;11.08;78.10
11542;BME280;5827;49.482;7.716;2023-04-09T08:02:57;99598.19;;;11.49;79.49
11542;BME280;5827;49.482;7.716;2023-04-09T08:04:59;99601.47;;;11.51;77.79
11542;BME280;5827;49.482;7.716;2023-04-09T08:07:00;99601.28;;;11.34;75.41
11542;BME280;5827;49.482;7.716;2023-04-09T08:09:02;99605.03;;;11.33;77.43
11542;BME280;5827;49.482;7.716;2023-04-09T08:11:03;99606.53;;;11.70;75.92
11542;BME280;5827;49.482;7.716;2023-04-09T08:13:06;99609.19;;;11.89;74.05
11542;BME280;5827;49.482;7.716;2023-04-09T08:15:09;99608.13;;;11.90;74.09
11542;BME280;5827;49.482;7.716;2023-04-09T08:17:11;99608.09;;;11.78;75.40
11542;BME280;5827;49.482;7.716;2023-04-09T08:19:13;99614.81;;;12.11;74.01
11542;BME280;5827;49.482;7.716;2023-04-09T08:21:16;99617.22;;;11.59;73.44
11542;BME280;5827;49.482;7.716;2023-04-09T08:23:18;99621.00;;;11.69;74.66
11542;BME280;5827;49.482;7.716;2023-04-09T08:25:21;99615.03;;;11.67;72.99
11542;BME280;5827;49.482;7.716;2023-04-09T08:27:22;99631.50;;;11.71;72.56
11542;BME280;5827;49.482;7.716;2023-04-09T08:29:24;99625.16;;;11.84;72.81
11542;BME280;5827;49.482;7.716;2023-04-09T08:31:27;99623.19;;;11.91;72.17
11542;BME280;5827;49.482;7.716;2023-04-09T08:33:28;99634.91;;;12.20;69.85
11542;BME280;5827;49.482;7.716;2023-04-09T08:35:30;99631.41;;;12.31;72.08
11542;BME280;5827;49.482;7.716;2023-04-09T08:37:31;99638.53;;;12.26;71.26
11542;BME280;5827;49.482;7.716;2023-04-09T08:39:33;99625.97;;;11.84;70.36
11542;BME280;5827;49.482;7.716;2023-04-09T08:41:39;99635.44;;;11.87;70.26
11542;BME280;5827;49.482;7.716;2023-04-09T08:43:42;99634.53;;;11.93;70.68
11542;BME280;5827;49.482;7.716;2023-04-09T08:45:45;99632.81;;;12.34;71.70
11542;BME280;5827;49.482;7.716;2023-04-09T08:47:49;99637.00;;;12.06;70.77
11542;BME280;5827;49.482;7.716;2023-04-09T08:49:51;99649.16;;;12.44;66.97
11542;BME280;5827;49.482;7.716;2023-04-09T08:51:52;99641.69;;;12.34;66.48
11542;BME280;5827;49.482;7.716;2023-04-09T08:53:55;99646.38;;;12.39;67.22
11542;BME280;5827;49.482;7.716;2023-04-09T08:55:57;99646.00;;;12.59;68.49
11542;BME280;5827;49.482;7.716;2023-04-09T08:57:59;99646.69;;;12.89;68.72
11542;BME280;5827;49.482;7.716;2023-04-09T09:00:00;99651.84;;;12.79;67.65
11542;BME280;5827;49.482;7.716;2023-04-09T09:02:06;99643.75;;;12.91;67.52
11542;BME280;5827;49.482;7.716;2023-04-09T09:04:09;99632.72;;;13.04;66.46
11542;BME280;5827;49.482;7.716;2023-04-09T09:06:19;99647.16;;;12.86;65.09
11542;BME280;5827;49.482;7.716;2023-04-09T09:08:23;99638.47;;;13.08;66.66
11542;BME280;5827;49.482;7.716;2023-04-09T09:10:36;99643.06;;;12.84;64.62
11542;BME280;5827;49.482;7.716;2023-04-09T09:12:39;99641.81;;;12.63;65.48
11542;BME280;5827;49.482;7.716;2023-04-09T09:14:40;99637.03;;;13.05;65.41
11542;BME280;5827;49.482;7.716;2023-04-09T09:19:03;99638.41;;;12.44;66.29
11542;BME280;5827;49.482;7.716;2023-04-09T09:21:13;99634.09;;;12.43;66.28
11542;BME280;5827;49.482;7.716;2023-04-09T09:23:15;99635.81;;;12.84;65.98
11542;BME280;5827;49.482;7.716;2023-04-09T09:25:17;99635.59;;;13.38;64.80
11542;BME280;5827;49.482;7.716;2023-04-09T09:27:32;99642.41;;;13.17;61.76
11542;BME280;5827;49.482;7.716;2023-04-09T09:29:40;99647.50;;;13.70;61.73
11542;BME280;5827;49.482;7.716;2023-04-09T09:31:45;99641.22;;;13.82;60.01
11542;BME280;5827;49.482;7.716;2023-04-09T09:33:48;99656.09;;;13.56;56.53
11542;BME280;5827;49.482;7.716;2023-04-09T09:35:51;99663.75;;;13.76;54.91
11542;BME280;5827;49.482;7.716;2023-04-09T09:38:02;99653.66;;;14.33;54.97
11542;BME280;5827;49.482;7.716;2023-04-09T09:40:05;99655.22;;;14.12;54.43
11542;BME280;5827;49.482;7.716;2023-04-09T09:42:07;99655.94;;;14.41;54.76
11542;BME280;5827;49.482;7.716;2023-04-09T09:44:10;99648.41;;;14.60;55.67
11542;BME280;5827;49.482;7.716;2023-04-09T09:46:12;99655.63;;;14.71;53.00
11542;BME280;5827;49.482;7.716;2023-04-09T09:48:14;99658.44;;;14.82;51.66
11542;BME280;5827;49.482;7.716;2023-04-09T09:50:16;99656.59;;;14.65;51.07
11542;BME280;5827;49.482;7.716;2023-04-09T09:52:21;99654.88;;;14.59;51.64
11542;BME280;5827;49.482;7.716;2023-04-09T09:54:28;99648.50;;;14.65;50.81
11542;BME280;5827;49.482;7.716;2023-04-09T09:56:35;99658.00;;;14.51;50.81
11542;BME280;5827;49.482;7.716;2023-04-09T09:58:41;99655.56;;;14.49;50.11
11542;BME280;5827;49.482;7.716;2023-04-09T10:00:46;99656.00;;;14.46;50.94
11542;BME280;5827;49.482;7.716;2023-04-09T10:02:53;99647.53;;;14.71;51.73
11542;BME280;5827;49.482;7.716;2023-04-09T10:04:59;99650.25;;;14.55;49.48
11542;BME280;5827;49.482;7.716;2023-04-09T10:07:03;99643.25;;;15.41;49.46
11542;BME280;5827;49.482;7.716;2023-04-09T10:09:05;99646.28;;;15.45;51.71
11542;BME280;5827;49.482;7.716;2023-04-09T10:11:08;99649.31;;;15.27;48.51
11542;BME280;5827;49.482;7.716;2023-04-09T10:13:15;99645.69;;;15.21;50.14
11542;BME280;5827;49.482;7.716;2023-04-09T10:15:17;99634.72;;;15.28;50.32
11542;BME280;5827;49.482;7.716;2023-04-09T10:17:19;99647.16;;;15.07;49.05
11542;BME280;5827;49.482;7.716;2023-04-09T10:19:21;99644.31;;;14.74;48.01
11542;BME280;5827;49.482;7.716;2023-04-09T10:21:29;99639.97;;;15.12;49.49
11542;BME280;5827;49.482;7.716;2023-04-09T10:23:37;99644.97;;;15.52;49.94
11542;BME280;5827;49.482;7.716;2023-04-09T10:25:40;99643.59;;;15.23;48.53
11542;BME280;5827;49.482;7.716;2023-04-09T10:27:43;99640.78;;;15.13;48.58
11542;BME280;5827;49.482;7.716;2023-04-09T10:29:49;99645.47;;;15.00;47.97
11542;BME280;5827;49.482;7.716;2023-04-09T10:31:52;99644.59;;;15.17;48.92
11542;BME280;5827;49.482;7.716;2023-04-09T10:34:02;99639.88;;;14.85;49.18
11542;BME280;5827;49.482;7.716;2023-04-09T10:36:05;99639.50;;;15.20;48.58
11542;BME280;5827;49.482;7.716;2023-04-09T10:38:10;99631.16;;;15.22;49.78
11542;BME280;5827;49.482;7.716;2023-04-09T10:40:17;99641.44;;;15.25;48.25
11542;BME280;5827;49.482;7.716;2023-04-09T10:42:22;99639.38;;;15.10;48.02
11542;BME280;5827;49.482;7.716;2023-04-09T10:44:26;99636.28;;;14.58;48.00
11542;BME280;5827;49.482;7.716;2023-04-09T10:46:28;99637.94;;;14.47;47.90
11542;BME280;5827;49.482;7.716;2023-04-09T10:48:33;99641.00;;;14.67;47.33
11542;BME280;5827;49.482;7.716;2023-04-09T10:50:36;99633.72;;;15.12;46.78
11542;BME280;5827;49.482;7.716;2023-04-09T10:52:39;99653.31;;;15.02;44.20
11542;BME280;5827;49.482;7.716;2023-04-09T10:54:43;99648.34;;;15.16;46.17
11542;BME280;5827;49.482;7.716;2023-04-09T10:57:12;99650.50;;;15.36;44.94
11542;BME280;5827;49.482;7.716;2023-04-09T10:59:14;99645.13;;;14.75;46.34
11542;BME280;5827;49.482;7.716;2023-04-09T11:01:21;99643.47;;;15.13;45.51
11542;BME280;5827;49.482;7.716;2023-04-09T11:03:24;99649.09;;;15.33;44.79